createdAt,value
2023-04-03T00:00:40.024Z,0.00
2023-04-03T00:01:40.006Z,0.00
2023-04-03T00:02:40.047Z,0.00
2023-04-03T00:03:39.981Z,0.00
2023-04-03T00:04:39.974Z,0.00
2023-04-03T00:05:39.961Z,0.00
2023-04-03T00:06:39.908Z,0.00
2023-04-03T00:07:39.928Z,0.00
2023-04-03T00:08:39.908Z,0.00
2023-04-03T00:09:39.869Z,0.00
2023-04-03T00:10:39.961Z,0.00
2023-04-03T00:11:39.858Z,0.00
2023-04-03T00:12:39.859Z,0.00
2023-04-03T00:13:39.848Z,0.00
2023-04-03T00:14:39.824Z,0.00
2023-04-03T00:15:39.810Z,0.00
2023-04-03T00:16:39.841Z,0.00
2023-04-03T00:17:39.847Z,0.00
2023-04-03T00:18:39.772Z,0.00
2023-04-03T00:19:39.746Z,0.00
2023-04-03T00:20:40.023Z,0.00
2023-04-03T00:21:39.735Z,0.00
2023-04-03T00:22:39.781Z,0.00
2023-04-03T00:23:39.696Z,0.00
2023-04-03T00:24:39.693Z,0.00
2023-04-03T00:25:39.668Z,0.00
2023-04-03T00:26:39.672Z,0.00
2023-04-03T00:27:39.659Z,0.00
2023-04-03T00:28:39.648Z,0.00
2023-04-03T00:29:39.631Z,0.00
2023-04-03T00:30:39.745Z,0.00
2023-04-03T00:31:39.602Z,0.00
2023-04-03T00:32:39.668Z,0.00
2023-04-03T00:33:39.586Z,0.00
2023-04-03T00:34:39.587Z,0.00
2023-04-03T00:35:39.643Z,0.00
2023-04-03T00:36:39.677Z,0.00
2023-04-03T00:37:39.527Z,0.00
2023-04-03T00:38:39.545Z,0.00
2023-04-03T00:39:39.495Z,0.00
2023-04-03T00:40:39.523Z,0.00
2023-04-03T00:41:39.529Z,0.00
2023-04-03T00:42:39.461Z,0.00
2023-04-03T00:43:39.439Z,0.00
2023-04-03T00:44:39.423Z,0.00
2023-04-03T00:45:39.418Z,0.00
2023-04-03T00:46:39.507Z,0.00
2023-04-03T00:47:39.401Z,0.00
2023-04-03T00:48:39.379Z,0.00
2023-04-03T00:49:39.366Z,0.00
2023-04-03T00:50:39.510Z,0.00
2023-04-03T00:51:39.395Z,0.00
2023-04-03T00:52:39.337Z,0.00
2023-04-03T00:53:39.310Z,0.00
2023-04-03T00:54:39.292Z,0.00
2023-04-03T00:55:39.295Z,0.00
2023-04-03T00:56:39.282Z,0.00
2023-04-03T00:57:39.293Z,0.00
2023-04-03T00:58:39.262Z,0.00
2023-04-03T00:59:39.237Z,0.00
2023-04-03T01:00:39.461Z,0.00
2023-04-03T01:01:39.242Z,0.00
2023-04-03T01:02:39.251Z,0.00
2023-04-03T01:03:39.187Z,0.00
2023-04-03T01:04:39.210Z,0.00
2023-04-03T01:05:39.159Z,0.00
2023-04-03T01:06:39.143Z,0.00
2023-04-03T01:07:39.166Z,0.00
2023-04-03T01:08:46.141Z,0.00
2023-04-03T01:09:39.101Z,0.00
2023-04-03T01:10:39.388Z,0.00
2023-04-03T01:11:39.074Z,0.00
2023-04-03T01:12:39.066Z,0.00
2023-04-03T01:13:39.068Z,0.00
2023-04-03T01:14:39.043Z,0.00
2023-04-03T01:15:39.019Z,0.00
2023-04-03T01:16:39.010Z,0.00
2023-04-03T01:17:39.046Z,0.00
2023-04-03T01:18:39.002Z,0.00
2023-04-03T01:19:38.975Z,0.00
2023-04-03T01:20:39.359Z,0.00
2023-04-03T01:21:38.959Z,0.00
2023-04-03T01:22:38.933Z,0.00
2023-04-03T01:23:38.929Z,0.00
2023-04-03T01:24:38.909Z,0.00
2023-04-03T01:25:38.903Z,0.00
2023-04-03T01:26:38.889Z,0.00
2023-04-03T01:27:38.908Z,0.00
2023-04-03T01:28:38.880Z,0.00
2023-04-03T01:29:38.855Z,0.00
2023-04-03T01:30:39.032Z,0.00
2023-04-03T01:31:38.892Z,0.00
2023-04-03T01:32:38.880Z,0.00
2023-04-03T01:33:38.795Z,0.00
2023-04-03T01:34:38.804Z,0.00
2023-04-03T01:35:38.836Z,0.00
2023-04-03T01:36:38.796Z,0.00
2023-04-03T01:37:38.773Z,0.00
2023-04-03T01:38:38.752Z,0.00
2023-04-03T01:39:38.718Z,0.00
2023-04-03T01:40:38.959Z,0.00
2023-04-03T01:41:38.690Z,0.00
2023-04-03T01:42:38.696Z,0.00
2023-04-03T01:43:38.691Z,0.00
2023-04-03T01:44:38.655Z,0.00
2023-04-03T01:45:38.687Z,0.00
2023-04-03T01:46:38.662Z,0.00
2023-04-03T01:47:38.688Z,0.00
2023-04-03T01:48:38.617Z,0.00
2023-04-03T01:49:38.617Z,0.00
2023-04-03T01:50:38.857Z,0.00
2023-04-03T01:51:38.564Z,0.00
2023-04-03T01:52:38.548Z,0.00
2023-04-03T01:53:38.585Z,0.00
2023-04-03T01:54:38.540Z,0.00
2023-04-03T01:55:38.509Z,0.00
2023-04-03T01:56:38.491Z,0.00
2023-04-03T01:57:38.481Z,0.00
2023-04-03T01:58:38.482Z,0.00
2023-04-03T01:59:38.469Z,0.00
2023-04-03T02:00:38.683Z,0.00
2023-04-03T02:01:38.575Z,0.00
2023-04-03T02:02:38.488Z,0.00
2023-04-03T02:03:38.463Z,0.00
2023-04-03T02:04:38.405Z,0.00
2023-04-03T02:05:38.420Z,0.00
2023-04-03T02:06:38.381Z,0.00
2023-04-03T02:07:38.364Z,0.00
2023-04-03T02:08:38.351Z,0.00
2023-04-03T02:09:38.356Z,0.00
2023-04-03T02:10:38.734Z,0.00
2023-04-03T02:11:38.354Z,0.00
2023-04-03T02:12:38.296Z,0.00
2023-04-03T02:13:38.291Z,0.00
2023-04-03T02:14:38.290Z,0.00
2023-04-03T02:15:38.264Z,0.00
2023-04-03T02:16:38.258Z,0.00
2023-04-03T02:17:38.247Z,0.00
2023-04-03T02:18:38.218Z,0.00
2023-04-03T02:19:38.224Z,0.00
2023-04-03T02:20:38.493Z,0.00
2023-04-03T02:21:38.179Z,0.00
2023-04-03T02:22:38.166Z,0.00
2023-04-03T02:23:38.182Z,0.00
2023-04-03T02:24:38.165Z,0.00
2023-04-03T02:25:38.914Z,0.00
2023-04-03T02:26:38.107Z,0.00
2023-04-03T02:27:38.101Z,0.00
2023-04-03T02:28:38.082Z,0.00
2023-04-03T02:29:38.079Z,0.00
2023-04-03T02:30:38.295Z,0.00
2023-04-03T02:31:38.057Z,0.00
2023-04-03T02:32:38.044Z,0.00
2023-04-03T02:33:38.032Z,0.00
2023-04-03T02:34:38.032Z,0.00
2023-04-03T02:35:38.049Z,0.00
2023-04-03T02:36:37.977Z,0.00
2023-04-03T02:37:37.975Z,0.00
2023-04-03T02:38:37.952Z,0.00
2023-04-03T02:39:37.949Z,0.00
2023-04-03T02:40:38.129Z,0.00
2023-04-03T02:41:37.944Z,0.00
2023-04-03T02:42:37.933Z,0.00
2023-04-03T02:43:37.896Z,0.00
2023-04-03T02:44:37.881Z,0.00
2023-04-03T02:45:37.868Z,0.00
2023-04-03T02:46:37.930Z,0.00
2023-04-03T02:47:37.865Z,0.00
2023-04-03T02:48:37.832Z,0.00
2023-04-03T02:49:37.840Z,0.00
2023-04-03T02:50:38.039Z,0.00
2023-04-03T02:51:37.818Z,0.00
2023-04-03T02:52:37.789Z,0.00
2023-04-03T02:53:37.768Z,0.00
2023-04-03T02:54:37.766Z,0.00
2023-04-03T02:55:37.736Z,0.00
2023-04-03T02:56:37.743Z,0.00
2023-04-03T02:57:37.727Z,0.00
2023-04-03T02:58:37.704Z,0.00
2023-04-03T02:59:37.714Z,0.00
2023-04-03T03:00:37.855Z,0.00
2023-04-03T03:01:37.667Z,0.00
2023-04-03T03:02:37.664Z,0.00
2023-04-03T03:03:37.666Z,0.00
2023-04-03T03:04:37.725Z,0.00
2023-04-03T03:05:37.631Z,0.00
2023-04-03T03:06:37.603Z,0.00
2023-04-03T03:07:37.597Z,0.00
2023-04-03T03:08:37.596Z,0.00
2023-04-03T03:09:37.556Z,0.00
2023-04-03T03:10:38.172Z,0.00
2023-04-03T03:11:37.540Z,0.00
2023-04-03T03:12:37.581Z,0.00
2023-04-03T03:13:37.521Z,0.00
2023-04-03T03:14:37.499Z,0.00
2023-04-03T03:15:37.565Z,0.00
2023-04-03T03:16:37.479Z,0.00
2023-04-03T03:17:37.525Z,0.00
2023-04-03T03:18:37.511Z,0.00
2023-04-03T03:19:37.437Z,0.00
2023-04-03T03:20:37.772Z,0.00
2023-04-03T03:21:37.443Z,0.00
2023-04-03T03:22:37.494Z,0.00
2023-04-03T03:23:37.529Z,0.00
2023-04-03T03:24:37.429Z,0.00
2023-04-03T03:25:37.627Z,0.00
2023-04-03T03:26:37.448Z,0.00
2023-04-03T03:27:37.336Z,0.00
2023-04-03T03:28:37.442Z,0.00
2023-04-03T03:29:37.328Z,0.00
2023-04-03T03:30:37.302Z,0.00
2023-04-03T03:31:37.401Z,0.00
2023-04-03T03:32:37.323Z,0.00
2023-04-03T03:33:37.259Z,0.00
2023-04-03T03:34:37.237Z,0.00
2023-04-03T03:35:37.463Z,0.00
2023-04-03T03:36:37.206Z,0.00
2023-04-03T03:37:37.210Z,0.00
2023-04-03T03:38:37.193Z,0.00
2023-04-03T03:39:37.176Z,0.00
2023-04-03T03:40:37.179Z,0.00
2023-04-03T03:41:37.147Z,0.00
2023-04-03T03:42:37.135Z,0.00
2023-04-03T03:43:37.135Z,0.00
2023-04-03T03:44:37.114Z,0.00
2023-04-03T03:45:37.309Z,0.00
2023-04-03T03:46:37.140Z,0.00
2023-04-03T03:47:37.105Z,0.00
2023-04-03T03:48:37.071Z,0.00
2023-04-03T03:49:37.051Z,0.00
2023-04-03T04:02:52.926Z,0.00
2023-04-03T04:03:53.082Z,0.00
2023-04-03T04:04:52.826Z,0.00
2023-04-03T04:05:52.831Z,0.00
2023-04-03T04:06:52.797Z,0.00
2023-04-03T04:07:52.814Z,0.00
2023-04-03T04:08:52.787Z,0.00
2023-04-03T04:09:52.774Z,0.00
2023-04-03T04:10:52.773Z,0.00
2023-04-03T04:11:52.758Z,0.00
2023-04-03T04:12:52.727Z,0.00
2023-04-03T04:13:52.724Z,0.00
2023-04-03T04:14:52.706Z,0.00
2023-04-03T04:15:52.727Z,0.00
2023-04-03T04:16:52.765Z,0.00
2023-04-03T04:17:52.742Z,0.00
2023-04-03T04:18:52.663Z,0.00
2023-04-03T04:19:52.647Z,0.00
2023-04-03T04:20:52.644Z,0.00
2023-04-03T04:21:52.627Z,0.00
2023-04-03T04:22:52.608Z,0.00
2023-04-03T04:23:52.591Z,0.00
2023-04-03T04:24:52.578Z,0.00
2023-04-03T04:25:52.576Z,0.00
2023-04-03T04:26:52.567Z,0.00
2023-04-03T04:27:52.540Z,0.00
2023-04-03T04:28:52.548Z,4.00
2023-04-03T04:29:52.518Z,0.00
2023-04-03T04:30:52.560Z,0.00
2023-04-03T04:31:52.502Z,4.00
2023-04-03T04:32:52.541Z,0.00
2023-04-03T04:33:52.468Z,4.00
2023-04-03T04:34:52.481Z,0.00
2023-04-03T04:35:52.486Z,4.00
2023-04-03T04:36:52.504Z,4.00
2023-04-03T04:37:52.420Z,8.00
2023-04-03T04:38:52.388Z,8.00
2023-04-03T04:39:52.399Z,8.00
2023-04-03T04:40:52.377Z,8.00
2023-04-03T04:41:52.396Z,12.00
2023-04-03T04:42:52.372Z,12.00
2023-04-03T04:43:52.344Z,12.00
2023-04-03T04:44:52.347Z,16.00
2023-04-03T04:45:52.419Z,20.00
2023-04-03T04:46:52.299Z,20.00
2023-04-03T04:47:52.295Z,24.00
2023-04-03T04:48:52.274Z,28.00
2023-04-03T04:49:52.286Z,32.00
2023-04-03T04:50:52.260Z,32.00
2023-04-03T04:51:52.680Z,36.00
2023-04-03T04:52:52.204Z,36.00
2023-04-03T04:53:53.529Z,40.00
2023-04-03T04:54:52.185Z,40.00
2023-04-03T04:55:52.207Z,48.00
2023-04-03T04:56:52.225Z,48.00
2023-04-03T04:57:52.181Z,52.00
2023-04-03T04:58:52.138Z,56.00
2023-04-03T04:59:52.146Z,60.00
2023-04-03T05:00:52.141Z,64.00
2023-04-03T05:01:52.152Z,68.00
2023-04-03T05:02:52.167Z,68.00
2023-04-03T05:03:52.102Z,72.00
2023-04-03T05:04:52.094Z,76.00
2023-04-03T05:05:52.078Z,80.00
2023-04-03T05:06:52.049Z,84.00
2023-04-03T05:07:52.057Z,88.00
2023-04-03T05:08:52.015Z,88.00
2023-04-03T05:09:52.013Z,96.00
2023-04-03T05:10:53.701Z,104.00
2023-04-03T05:11:51.987Z,104.00
2023-04-03T05:12:51.996Z,108.00
2023-04-03T05:13:51.966Z,116.00
2023-04-03T05:14:52.008Z,120.00
2023-04-03T05:15:52.064Z,128.00
2023-04-03T05:16:52.650Z,132.00
2023-04-03T05:17:51.938Z,136.00
2023-04-03T05:18:51.918Z,144.00
2023-04-03T05:19:51.873Z,148.00
2023-04-03T05:20:51.885Z,156.00
2023-04-03T05:21:51.870Z,160.00
2023-04-03T05:22:51.867Z,164.00
2023-04-03T05:23:51.826Z,168.00
2023-04-03T05:24:51.822Z,176.00
2023-04-03T05:25:51.836Z,180.00
2023-04-03T05:26:51.799Z,188.00
2023-04-03T05:27:51.788Z,188.00
2023-04-03T05:28:51.754Z,196.00
2023-04-03T05:29:51.771Z,200.00
2023-04-03T05:30:51.756Z,204.00
2023-04-03T05:31:51.851Z,208.00
2023-04-03T05:32:51.784Z,212.00
2023-04-03T05:33:51.725Z,216.00
2023-04-03T05:34:51.691Z,220.00
2023-04-03T05:35:51.701Z,228.00
2023-04-03T05:36:51.676Z,232.00
2023-04-03T05:37:51.663Z,236.00
2023-04-03T05:38:51.640Z,244.00
2023-04-03T05:39:51.623Z,252.00
2023-04-03T05:40:51.629Z,256.00
2023-04-03T05:41:51.600Z,264.00
2023-04-03T05:42:51.597Z,264.00
2023-04-03T05:43:51.567Z,264.00
2023-04-03T05:44:51.556Z,268.00
2023-04-03T05:45:51.617Z,264.00
2023-04-03T05:46:51.538Z,264.00
2023-04-03T05:47:51.602Z,260.00
2023-04-03T05:48:51.501Z,260.00
2023-04-03T05:49:51.489Z,272.00
2023-04-03T05:50:51.500Z,276.00
2023-04-03T05:51:51.475Z,280.00
2023-04-03T05:52:51.459Z,292.00
2023-04-03T05:53:51.467Z,296.00
2023-04-03T05:54:51.446Z,296.00
2023-04-03T05:55:51.432Z,292.00
2023-04-03T05:56:51.463Z,288.00
2023-04-03T05:57:51.448Z,284.00
2023-04-03T05:58:51.416Z,284.00
2023-04-03T05:59:51.387Z,288.00
2023-04-03T06:00:51.421Z,296.00
2023-04-03T06:01:51.335Z,300.00
2023-04-03T06:02:51.469Z,304.00
2023-04-03T06:03:51.425Z,312.00
2023-04-03T06:04:51.399Z,324.00
2023-04-03T06:05:51.317Z,344.00
2023-04-03T06:06:51.286Z,352.00
2023-04-03T06:07:51.260Z,360.00
2023-04-03T06:08:51.271Z,372.00
2023-04-03T06:09:51.262Z,384.00
2023-04-03T06:10:51.259Z,392.00
2023-04-03T06:11:51.236Z,392.00
2023-04-03T06:12:51.230Z,396.00
2023-04-03T06:13:51.219Z,404.00
2023-04-03T06:14:51.212Z,404.00
2023-04-03T06:15:51.208Z,404.00
2023-04-03T06:16:51.182Z,404.00
2023-04-03T06:17:51.172Z,412.00
2023-04-03T06:18:51.154Z,416.00
2023-04-03T06:19:51.115Z,416.00
2023-04-03T06:20:51.122Z,424.00
2023-04-03T06:21:51.083Z,440.00
2023-04-03T06:22:51.089Z,456.00
2023-04-03T06:23:51.071Z,460.00
2023-04-03T06:24:51.050Z,460.00
2023-04-03T06:25:51.049Z,456.00
2023-04-03T06:26:51.018Z,460.00
2023-04-03T06:27:51.003Z,468.00
2023-04-03T06:28:51.007Z,484.00
2023-04-03T06:29:50.982Z,488.00
2023-04-03T06:30:51.071Z,492.00
2023-04-03T06:31:50.961Z,500.00
2023-04-03T06:32:50.982Z,500.00
2023-04-03T06:33:50.960Z,504.00
2023-04-03T06:34:50.936Z,512.00
2023-04-03T06:35:50.942Z,512.00
2023-04-03T06:36:50.894Z,516.00
2023-04-03T06:37:50.889Z,536.00
2023-04-03T06:38:50.880Z,556.00
2023-04-03T06:39:50.864Z,560.00
2023-04-03T06:40:50.892Z,564.00
2023-04-03T06:41:50.828Z,580.00
2023-04-03T06:42:50.806Z,596.00
2023-04-03T06:43:50.813Z,612.00
2023-04-03T06:44:50.815Z,628.00
2023-04-03T06:45:50.847Z,644.00
2023-04-03T06:46:50.785Z,640.00
2023-04-03T06:47:50.803Z,652.00
2023-04-03T06:48:50.745Z,676.00
2023-04-03T06:49:50.735Z,684.00
2023-04-03T06:50:50.741Z,684.00
2023-04-03T06:51:50.699Z,692.00
2023-04-03T06:52:50.705Z,712.00
2023-04-03T06:53:50.679Z,732.00
2023-04-03T06:54:50.667Z,756.00
2023-04-03T06:55:50.671Z,780.00
2023-04-03T06:56:50.652Z,788.00
2023-04-03T06:57:50.671Z,796.00
2023-04-03T06:58:50.613Z,792.00
2023-04-03T06:59:50.631Z,792.00
2023-04-03T07:00:50.609Z,800.00
2023-04-03T07:01:50.879Z,820.00
2023-04-03T07:02:50.610Z,848.00
2023-04-03T07:03:50.556Z,868.00
2023-04-03T07:04:50.562Z,864.00
2023-04-03T07:05:50.571Z,868.00
2023-04-03T07:06:50.537Z,880.00
2023-04-03T07:07:50.534Z,892.00
2023-04-03T07:08:50.493Z,904.00
2023-04-03T07:09:50.468Z,904.00
2023-04-03T07:10:50.474Z,896.00
2023-04-03T07:11:50.464Z,892.00
2023-04-03T07:12:50.433Z,920.00
2023-04-03T07:13:50.453Z,952.00
2023-04-03T07:14:50.409Z,964.00
2023-04-03T07:15:50.490Z,968.00
2023-04-03T07:16:50.395Z,956.00
2023-04-03T07:17:50.414Z,948.00
2023-04-03T07:18:50.365Z,940.00
2023-04-03T07:19:50.516Z,944.00
2023-04-03T07:20:50.364Z,940.00
2023-04-03T07:21:50.492Z,940.00
2023-04-03T07:22:50.298Z,936.00
2023-04-03T07:23:50.434Z,948.00
2023-04-03T07:24:50.313Z,960.00
2023-04-03T07:25:50.257Z,960.00
2023-04-03T07:26:50.265Z,972.00
2023-04-03T07:27:50.249Z,996.00
2023-04-03T07:28:50.258Z,1020.00
2023-04-03T07:29:50.291Z,1044.00
2023-04-03T07:30:50.202Z,1068.00
2023-04-03T07:31:50.272Z,1088.00
2023-04-03T07:32:50.219Z,1176.00
2023-04-03T07:33:50.166Z,1144.00
2023-04-03T07:34:50.239Z,1176.00
2023-04-03T07:35:50.152Z,1208.00
2023-04-03T07:36:50.163Z,1192.00
2023-04-03T07:37:50.113Z,1180.00
2023-04-03T07:38:50.222Z,1192.00
2023-04-03T07:39:50.173Z,1204.00
2023-04-03T07:40:50.235Z,1208.00
2023-04-03T07:41:50.067Z,1216.00
2023-04-03T07:42:50.063Z,1220.00
2023-04-03T07:43:50.035Z,1216.00
2023-04-03T07:44:50.017Z,1204.00
2023-04-03T07:45:50.015Z,1200.00
2023-04-03T07:46:50.012Z,1188.00
2023-04-03T07:47:50.132Z,1200.00
2023-04-03T07:48:50.749Z,1204.00
2023-04-03T07:49:49.942Z,1212.00
2023-04-03T07:50:49.951Z,1220.00
2023-04-03T07:51:50.016Z,1224.00
2023-04-03T07:52:49.932Z,1228.00
2023-04-03T07:53:49.902Z,1248.00
2023-04-03T07:54:49.913Z,1256.00
2023-04-03T07:55:49.871Z,1256.00
2023-04-03T07:56:49.908Z,1264.00
2023-04-03T07:57:49.884Z,1296.00
2023-04-03T07:58:49.839Z,1316.00
2023-04-03T07:59:49.826Z,1328.00
2023-04-03T08:00:49.845Z,1344.00
2023-04-03T08:01:49.872Z,1388.00
2023-04-03T08:02:49.911Z,1412.00
2023-04-03T08:03:49.897Z,1432.00
2023-04-03T08:04:49.871Z,1440.00
2023-04-03T08:05:49.798Z,1432.00
2023-04-03T08:06:49.912Z,1424.00
2023-04-03T08:07:49.759Z,1424.00
2023-04-03T08:08:49.709Z,1472.00
2023-04-03T08:09:49.712Z,1428.00
2023-04-03T08:10:49.680Z,1456.00
2023-04-03T08:11:49.682Z,1504.00
2023-04-03T08:12:49.678Z,1532.00
2023-04-03T08:13:49.744Z,1548.00
2023-04-03T08:14:49.645Z,1544.00
2023-04-03T08:15:49.616Z,1528.00
2023-04-03T08:16:49.706Z,1548.00
2023-04-03T08:17:49.691Z,1580.00
2023-04-03T08:18:49.614Z,1600.00
2023-04-03T08:19:49.608Z,1572.00
2023-04-03T08:20:49.556Z,1564.00
2023-04-03T08:21:49.532Z,1580.00
2023-04-03T08:22:49.550Z,1612.00
2023-04-03T08:23:49.504Z,1664.00
2023-04-03T08:24:58.614Z,1828.00
2023-04-03T08:25:50.517Z,1696.00
2023-04-03T08:26:49.489Z,1612.00
2023-04-03T08:27:49.494Z,1568.00
2023-04-03T08:28:49.594Z,1716.00
2023-04-03T08:29:49.446Z,1556.00
2023-04-03T08:30:49.478Z,1600.00
2023-04-03T08:31:49.401Z,1628.00
2023-04-03T08:32:49.505Z,1644.00
2023-04-03T08:33:49.367Z,1648.00
2023-04-03T08:34:49.379Z,1672.00
2023-04-03T08:35:49.381Z,1720.00
2023-04-03T08:36:49.365Z,1744.00
2023-04-03T08:37:49.337Z,1936.00
2023-04-03T08:38:49.332Z,1856.00
2023-04-03T08:39:49.305Z,1856.00
2023-04-03T08:40:49.288Z,1784.00
2023-04-03T08:41:49.275Z,1764.00
2023-04-03T08:42:49.277Z,1728.00
2023-04-03T08:43:49.247Z,1456.00
2023-04-03T08:44:49.242Z,1356.00
2023-04-03T08:45:49.368Z,1320.00
2023-04-03T08:46:49.207Z,1304.00
2023-04-03T08:47:49.211Z,1368.00
2023-04-03T08:48:49.196Z,1192.00
2023-04-03T08:49:49.201Z,1120.00
2023-04-03T08:50:49.178Z,1104.00
2023-04-03T08:51:49.151Z,1072.00
2023-04-03T08:52:49.184Z,1052.00
2023-04-03T08:53:49.130Z,1024.00
2023-04-03T08:54:49.112Z,1100.00
2023-04-03T08:55:49.092Z,1168.00
2023-04-03T08:56:49.081Z,1248.00
2023-04-03T08:57:49.075Z,1324.00
2023-04-03T08:58:49.064Z,1696.00
2023-04-03T08:59:49.064Z,1944.00
2023-04-03T09:00:49.028Z,2012.00
2023-04-03T09:01:49.105Z,2152.00
2023-04-03T09:02:49.046Z,2208.00
2023-04-03T09:03:49.030Z,2164.00
2023-04-03T09:04:48.997Z,2104.00
2023-04-03T09:05:48.976Z,2104.00
2023-04-03T09:06:48.966Z,2020.00
2023-04-03T09:07:50.031Z,1908.00
2023-04-03T09:08:48.955Z,2140.00
2023-04-03T09:09:48.932Z,1836.00
2023-04-03T09:10:48.905Z,1768.00
2023-04-03T09:11:48.900Z,1572.00
2023-04-03T09:12:48.900Z,1352.00
2023-04-03T09:13:48.877Z,1236.00
2023-04-03T09:14:48.870Z,1132.00
2023-04-03T09:15:48.892Z,1036.00
2023-04-03T09:16:48.836Z,976.00
2023-04-03T09:17:48.842Z,968.00
2023-04-03T09:18:48.823Z,1092.00
2023-04-03T09:19:48.836Z,1100.00
2023-04-03T09:20:48.774Z,1172.00
2023-04-03T09:21:48.778Z,1228.00
2023-04-03T09:22:52.206Z,1308.00
2023-04-03T09:23:48.751Z,1376.00
2023-04-03T09:24:48.760Z,1412.00
2023-04-03T09:25:48.747Z,1380.00
2023-04-03T09:26:48.715Z,1320.00
2023-04-03T09:27:48.703Z,1340.00
2023-04-03T09:28:51.196Z,1308.00
2023-04-03T09:29:48.686Z,1260.00
2023-04-03T09:30:48.688Z,1288.00
2023-04-03T09:31:48.654Z,1328.00
2023-04-03T09:32:48.686Z,1364.00
2023-04-03T09:33:48.624Z,1352.00
2023-04-03T09:34:48.631Z,1380.00
2023-04-03T09:35:49.131Z,1420.00
2023-04-03T09:36:48.670Z,1492.00
2023-04-03T09:37:48.567Z,1492.00
2023-04-03T09:38:48.574Z,1432.00
2023-04-03T09:39:48.547Z,1496.00
2023-04-03T09:40:48.563Z,1580.00
2023-04-03T09:41:48.512Z,2660.00
2023-04-03T09:42:52.014Z,3044.00
2023-04-03T09:43:49.507Z,1936.00
2023-04-03T09:44:48.504Z,1952.00
2023-04-03T09:45:48.510Z,1892.00
2023-04-03T09:46:48.490Z,1784.00
2023-04-03T10:03:16.882Z,1932.00
2023-04-03T10:04:16.890Z,1776.00
2023-04-03T10:05:16.870Z,1624.00
2023-04-03T10:06:16.824Z,1516.00
2023-04-03T10:07:16.809Z,1404.00
2023-04-03T10:08:16.800Z,1344.00
2023-04-03T10:09:16.809Z,1336.00
2023-04-03T10:10:16.872Z,1408.00
2023-04-03T10:11:16.781Z,1488.00
2023-04-03T10:12:16.761Z,1620.00
2023-04-03T10:13:20.908Z,2440.00
2023-04-03T10:14:16.731Z,2592.00
2023-04-03T10:15:16.706Z,2032.00
2023-04-03T10:16:16.759Z,3148.00
2023-04-03T10:17:16.710Z,2212.00
2023-04-03T10:19:16.781Z,2404.00
2023-04-03T10:20:16.684Z,2124.00
2023-04-03T10:21:26.768Z,2088.00
2023-04-03T10:22:17.628Z,2100.00
2023-04-03T10:23:16.605Z,2132.00
2023-04-03T10:24:16.641Z,2160.00
2023-04-03T10:25:16.606Z,2604.00
2023-04-03T10:26:16.593Z,1984.00
2023-04-03T10:27:16.566Z,2068.00
2023-04-03T10:28:16.539Z,1964.00
2023-04-03T10:29:16.556Z,1892.00
2023-04-03T10:30:16.624Z,1824.00
2023-04-03T10:31:16.613Z,1864.00
2023-04-03T10:32:16.486Z,1880.00
2023-04-03T10:33:16.480Z,1872.00
2023-04-03T10:34:16.486Z,1788.00
2023-04-03T10:35:16.456Z,1724.00
2023-04-03T10:36:16.427Z,1632.00
2023-04-03T10:37:16.437Z,1644.00
2023-04-03T10:38:16.418Z,1656.00
2023-04-03T10:39:16.407Z,1656.00
2023-04-03T10:40:16.479Z,1728.00
2023-04-03T10:41:17.539Z,1764.00
2023-04-03T10:42:17.654Z,1840.00
2023-04-03T10:43:16.339Z,1980.00
2023-04-03T10:44:16.331Z,2280.00
2023-04-03T10:45:16.374Z,2276.00
2023-04-03T10:46:16.361Z,2492.00
2023-04-03T10:47:16.293Z,3848.00
2023-04-03T10:48:16.347Z,4360.00
2023-04-03T10:49:16.275Z,2684.00
2023-04-03T10:50:16.294Z,2504.00
2023-04-03T10:51:16.246Z,2528.00
2023-04-03T10:52:16.222Z,2644.00
2023-04-03T10:53:16.227Z,2716.00
2023-04-03T10:54:16.197Z,2668.00
2023-04-03T10:55:16.267Z,2608.00
2023-04-03T10:56:16.186Z,2528.00
2023-04-03T10:57:16.181Z,2492.00
2023-04-03T10:58:16.154Z,2404.00
2023-04-03T10:59:16.163Z,2380.00
2023-04-03T11:00:16.140Z,2040.00
2023-04-03T11:01:16.149Z,1900.00
2023-04-03T11:02:16.091Z,1732.00
2023-04-03T11:03:16.198Z,1588.00
2023-04-03T11:04:16.085Z,1672.00
2023-04-03T11:05:16.077Z,3416.00
2023-04-03T11:06:16.063Z,1948.00
2023-04-03T11:07:16.046Z,1976.00
2023-04-03T11:08:16.042Z,2052.00
2023-04-03T11:09:16.017Z,3768.00
2023-04-03T11:10:16.120Z,3916.00
2023-04-03T11:11:16.012Z,4144.00
2023-04-03T11:12:15.957Z,3244.00
2023-04-03T11:13:15.958Z,2732.00
2023-04-03T11:14:15.975Z,4480.00
2023-04-03T11:15:15.960Z,3148.00
2023-04-03T11:16:15.964Z,3764.00
2023-04-03T11:17:15.898Z,2612.00
2023-04-03T11:18:15.890Z,2524.00
2023-04-03T11:19:15.888Z,2484.00
2023-04-03T11:20:15.877Z,2520.00
2023-04-03T11:21:15.863Z,2436.00
2023-04-03T11:22:15.858Z,2280.00
2023-04-03T11:23:15.850Z,2028.00
2023-04-03T11:24:15.815Z,2004.00
2023-04-03T11:25:15.815Z,1956.00
2023-04-03T11:26:15.801Z,2100.00
2023-04-03T11:27:15.791Z,2120.00
2023-04-03T11:28:15.779Z,2084.00
2023-04-03T11:29:20.707Z,2032.00
2023-04-03T11:30:16.747Z,2216.00
2023-04-03T11:31:15.741Z,3040.00
2023-04-03T11:32:15.733Z,2492.00
2023-04-03T11:33:15.702Z,3940.00
2023-04-03T11:34:15.676Z,3744.00
2023-04-03T11:35:15.707Z,3652.00
2023-04-03T11:36:26.087Z,3540.00
2023-04-03T11:37:16.655Z,3436.00
2023-04-03T11:38:15.640Z,3432.00
2023-04-03T11:39:15.620Z,3452.00
2023-04-03T11:40:15.652Z,3416.00
2023-04-03T11:41:15.603Z,3404.00
2023-04-03T11:42:15.642Z,1492.00
2023-04-03T11:43:15.564Z,3484.00
2023-04-03T11:44:15.552Z,3756.00
2023-04-03T11:45:15.557Z,2432.00
2023-04-03T11:46:15.558Z,3540.00
2023-04-03T11:47:15.526Z,3396.00
2023-04-03T11:48:23.922Z,4552.00
2023-04-03T11:49:16.489Z,2836.00
2023-04-03T11:50:15.477Z,4624.00
2023-04-03T11:51:15.466Z,2476.00
2023-04-03T11:52:15.491Z,2368.00
2023-04-03T11:53:15.456Z,2548.00
2023-04-03T11:54:15.439Z,2572.00
2023-04-03T11:55:15.414Z,4088.00
2023-04-03T11:56:15.436Z,3860.00
2023-04-03T11:57:15.433Z,4036.00
2023-04-03T11:58:15.400Z,4200.00
2023-04-03T11:59:15.430Z,2080.00
2023-04-03T12:00:15.349Z,1832.00
2023-04-03T12:01:15.343Z,3388.00
2023-04-03T12:02:15.379Z,3928.00
2023-04-03T12:03:15.451Z,3852.00
2023-04-03T12:04:15.496Z,3768.00
2023-04-03T12:05:15.289Z,3656.00
2023-04-03T12:06:15.301Z,3616.00
2023-04-03T12:07:15.272Z,3596.00
2023-04-03T12:08:15.283Z,3668.00
2023-04-03T12:09:15.219Z,3816.00
2023-04-03T12:10:21.369Z,3948.00
2023-04-03T12:11:16.219Z,1992.00
2023-04-03T12:12:15.215Z,3560.00
2023-04-03T12:13:15.183Z,2272.00
2023-04-03T12:14:15.241Z,3852.00
2023-04-03T12:15:15.145Z,2816.00
2023-04-03T12:16:15.166Z,2412.00
2023-04-03T12:17:15.295Z,2488.00
2023-04-03T12:18:15.138Z,3476.00
2023-04-03T12:19:15.108Z,5044.00
2023-04-03T12:20:15.078Z,4952.00
2023-04-03T12:21:15.084Z,4860.00
2023-04-03T12:22:15.070Z,4700.00
2023-04-03T12:23:15.070Z,4616.00
2023-04-03T12:24:15.046Z,4588.00
2023-04-03T12:25:15.027Z,2680.00
2023-04-03T12:26:15.028Z,3360.00
2023-04-03T12:27:14.990Z,3592.00
2023-04-03T12:28:15.006Z,3960.00
2023-04-03T12:29:15.021Z,4640.00
2023-04-03T12:30:14.970Z,4636.00
2023-04-03T12:31:15.012Z,4536.00
2023-04-03T12:32:14.940Z,4388.00
2023-04-03T12:33:14.947Z,4272.00
2023-04-03T12:34:14.953Z,4208.00
2023-04-03T12:35:14.898Z,4180.00
2023-04-03T12:36:14.973Z,4104.00
2023-04-03T12:37:14.876Z,4200.00
2023-04-03T12:38:14.869Z,4104.00
2023-04-03T12:39:14.874Z,4204.00
2023-04-03T12:40:14.857Z,4144.00
2023-04-03T12:41:14.895Z,3200.00
2023-04-03T12:42:14.811Z,4344.00
2023-04-03T12:43:14.806Z,4108.00
2023-04-03T12:44:14.831Z,3752.00
2023-04-03T12:45:14.788Z,4764.00
2023-04-03T12:46:14.886Z,2508.00
2023-04-03T12:47:14.884Z,4336.00
2023-04-03T12:48:14.739Z,4888.00
2023-04-03T12:49:14.731Z,4956.00
2023-04-03T12:50:14.704Z,2620.00
2023-04-03T12:51:14.694Z,2460.00
2023-04-03T12:52:14.706Z,5032.00
2023-04-03T12:53:14.668Z,5204.00
2023-04-03T12:54:14.684Z,5264.00
2023-04-03T12:55:14.659Z,3564.00
2023-04-03T12:56:14.621Z,3176.00
2023-04-03T12:57:14.646Z,3036.00
2023-04-03T12:58:14.606Z,3412.00
2023-04-03T12:59:14.611Z,2736.00
2023-04-03T13:00:14.566Z,2872.00
2023-04-03T13:01:14.630Z,4732.00
2023-04-03T13:02:14.563Z,4488.00
2023-04-03T13:03:14.615Z,2444.00
2023-04-03T13:04:14.565Z,2616.00
2023-04-03T13:05:14.512Z,4076.00